Mae Rim, Thailand
Current Conditions -  °F | °C
As of 10:30 AM on Tuesday 21 Oct 2014 (Local Time) from VTCC Reporting Station
Broken Clouds Broken Clouds  
Wind Chill: 81°   Ceiling: 3500
Heat Index: 85°   Visibility: 5mi
Dew Point: 72°   Wind: 2mph
Humidity: 74%   Direction: 40°NE
Pressure: 30.09"   Gusts: NA
Location:  18.9°N, 98.9°E
Report Text: VTCC 210330Z 04002KT 8000 BKN035 27/22 Q1019 A3010 NOSIG
Loading
Personal Weather Stations






























Interactive Weather Map
Tropical Storm Tracking
New forecast layout! Learn more

10-Day Weather Forecast

Advertisements
Track Severe Weather on mobile